SCC: Homestead: GS practice one times

Pos Num Class Team Time Gap To 1st Speed --- --- ----- ------------------------------ ---------- ------- ------- ------- 1. 5 GS Blackforest Motorsports 1:28.519 93.539 2. 41...

Pos Num Class Team                                 Time     Gap  To 1st   Speed
--- --- ----- ------------------------------ ---------- ------- ------- -------
 1.   5 GS    Blackforest Motorsports          1:28.519                  93.539
 2.  41 GS    TRG                              1:28.815   0.296   0.296  93.227
 3.  09 GS    Automatic Racing                 1:28.858   0.043   0.339  93.182
 4.   4 GS    Blackforest Motorsports          1:28.935   0.077   0.416  93.102
 5.  25 GS    Fiorano/C-MAX Racing             1:28.938   0.003   0.419  93.099
 6.   9 GS    Spirit of Daytona Racing         1:29.203   0.265   0.684  92.822
 7.   6 GS    Blackforest Motorsports          1:29.204   0.001   0.685  92.821
 8.  55 GS    Hyper Sport                      1:29.209   0.005   0.690  92.816
 9.  38 GS    BGB Motorsports                  1:29.211   0.002   0.692  92.814
10.  90 GS    Automatic Racing                 1:29.435   0.224   0.916  92.581
11.  37 GS    JBS Racing                       1:29.515   0.080   0.996  92.498
12. 154 GS    Jim Click Racing                 1:29.823   0.308   1.304  92.181
13.  83 GS    BGB Motorsports                  1:29.824   0.001   1.305  92.180
14.  28 GS    Fall-Line Motorsports            1:29.835   0.011   1.316  92.169
15.  87 GS    LNS Motorsport                   1:29.859   0.024   1.340  92.144
16. 137 GS    JBS Motorsports                  1:29.874   0.015   1.355  92.129
17.  39 GS    TRG                              1:29.987   0.113   1.468  92.013
18.  54 GS    Hyper Sport                      1:30.031   0.044   1.512  91.968
19. 156 GS    Hyper Sport                      1:30.034   0.003   1.515  91.965
20.  59 GS    Rehagen Racing                   1:30.069   0.035   1.550  91.930
21.  18 GS    Race Prep Motorsports            1:30.114   0.045   1.595  91.884
22.  97 GS    Turner Motorsport                1:30.168   0.054   1.649  91.829
23.  79 GS    Kinetic Motorsports              1:30.176   0.008   1.657  91.820
24.  88 GS    LNS Motorsport                   1:30.234   0.058   1.715  91.761
25.  26 GS    Fiorano/C-MAX Racing             1:30.336   0.102   1.817  91.658
26.  96 GS    Turner Motorsport                1:30.383   0.047   1.864  91.610
27.  99 GS    Automatic Racing                 1:30.388   0.005   1.869  91.605
28.  17 GS    Team Centurion                   1:30.461   0.073   1.942  91.531
29.  44 GS    ASC Motorsports                  1:30.773   0.312   2.254  91.217
30. 150 GS    Jim Click Racing                 1:30.793   0.020   2.274  91.196
31.  60 GS    Horsepower Ranch                 1:30.910   0.117   2.391  91.079
32.  43 GS    ASC Motorsports                  1:30.911   0.001   2.392  91.078
33.  91 GS    Automatic Racing                 1:31.448   0.537   2.929  90.543
34.  49 GS    Marcus Motorsports               1:31.663   0.215   3.144  90.331
35.  21 GS    Bodymotion Racing                1:32.261   0.598   3.742  89.745
36.  10 GS    Spirit of Daytona Racing         1:32.271   0.010   3.752  89.736
37.  77 GS    Blackforest Motorsports          1:32.289   0.018   3.770  89.718
38.  20 GS    Horsepower Ranch                 1:32.334   0.045   3.815  89.674
39.  89 GS    LNS Motorsport                   1:33.222   0.888   4.703  88.820
40.  50 GS    Eastern Competition Promotorsp   1:34.271   1.049   5.752  87.832
41.  40 GS    TRG                              1:35.371   1.100   6.852  86.819

Be part of something big

Write a comment
Show comments
About this article
Series Grand-Am
Drivers Jim Click
Teams Kinetic Motorsports , Rehagen Racing , Turner Motorsport , Automatic Racing , Fall-Line Motorsports , Bodymotion Racing